Time;durP1;ratioP1;P1;durP2;ratioP2;P2;SDS_P1;SDS_P2;PMS_P1;PMS_P2;Temp;Humidity;BMP_temperature;BMP_pressure;BME280_temperature;BME280_humidity;BME280_pressure;Samples;Min_cycle;Max_cycle;Signal;HPM_P1;HPM_P2
2022/08/09 00:01:11;;;;;;;8.02;5.97;;;;;;;;;;5057346;28;20051;-68
2022/08/09 00:03:37;;;;;;;9.32;5.85;;;;;;;;;;5092508;28;20086;-73
2022/08/09 00:06:03;;;;;;;9.70;5.20;;;;;;;;;;5092405;28;20058;-69
2022/08/09 00:08:29;;;;;;;9.43;4.78;;;;;;;;;;5092605;28;20049;-68
2022/08/09 00:10:56;;;;;;;9.30;6.32;;;;;;;;;;5092380;28;20430;-68
2022/08/09 00:13:22;;;;;;;12.18;6.65;;;;;;;;;;5092284;28;20032;-73
2022/08/09 00:15:48;;;;;;;9.02;5.97;;;;;;;;;;5087692;28;20047;-73
2022/08/09 00:18:14;;;;;;;62.55;5.90;;;;;;;;;;5074800;28;20052;-68
2022/08/09 00:20:40;;;;;;;7.18;5.03;;;;;;;;;;5073793;28;20177;-73
2022/08/09 00:23:06;;;;;;;10.68;6.03;;;;;;;;;;5091858;28;20040;-73
2022/08/09 00:25:32;;;;;;;7.43;5.53;;;;;;;;;;5074397;28;20496;-73
2022/08/09 00:27:58;;;;;;;9.13;4.90;;;;;;;;;;5081148;28;20046;-73
2022/08/09 00:30:24;;;;;;;115.68;6.10;;;;;;;;;;5092241;28;20080;-68
2022/08/09 00:32:50;;;;;;;7.60;5.13;;;;;;;;;;5073422;28;20058;-68
2022/08/09 00:35:16;;;;;;;10.75;6.82;;;;;;;;;;5092216;28;20082;-69
2022/08/09 00:37:42;;;;;;;13.25;5.88;;;;;;;;;;5083940;28;20074;-69
2022/08/09 00:40:09;;;;;;;18.42;7.20;;;;;;;;;;5086351;28;20476;-73
2022/08/09 00:42:35;;;;;;;8.10;6.28;;;;;;;;;;5074290;28;20043;-73
2022/08/09 00:45:03;;;;;;;22.45;7.35;;;;;;;;;;5091214;28;20056;-73
2022/08/09 00:47:29;;;;;;;9.93;6.82;;;;;;;;;;5074274;28;20559;-68
2022/08/09 00:49:55;;;;;;;11.80;7.43;;;;;;;;;;5091945;28;20527;-73
2022/08/09 00:52:23;;;;;;;11.43;8.00;;;;;;;;;;5073830;28;20082;-73
2022/08/09 00:54:52;;;;;;;13.07;8.70;;;;;;;;;;5083534;28;20044;-68
2022/08/09 00:57:18;;;;;;;12.73;7.43;;;;;;;;;;5091584;28;20102;-73
2022/08/09 00:59:44;;;;;;;21.70;13.52;;;;;;;;;;5050628;28;20141;-73
2022/08/09 01:02:11;;;;;;;268.38;11.63;;;;;;;;;;5051547;28;20044;-73
2022/08/09 01:04:55;;;;;;;394.73;12.00;;;;;;;;;;5089079;28;20489;-73
2022/08/09 01:07:24;;;;;;;169.65;7.03;;;;;;;;;;5077250;28;20051;-73
2022/08/09 01:09:57;;;;;;;29.95;5.25;;;;;;;;;;5077575;28;20565;-73
2022/08/09 01:12:34;;;;;;;36.63;5.50;;;;;;;;;;5076344;28;20594;-73
2022/08/09 01:15:02;;;;;;;125.75;6.25;;;;;;;;;;5077588;28;20044;-73
2022/08/09 01:17:38;;;;;;;200.93;8.90;;;;;;;;;;5091041;28;20044;-73
2022/08/09 01:20:04;;;;;;;;;;;;;;;;;;5096314;28;20499;-73
2022/08/09 01:22:30;;;;;;;50.60;6.80;;;;;;;;;;5077510;28;19923;-73
2022/08/09 01:24:56;;;;;;;139.43;9.60;;;;;;;;;;5077494;28;20564;-73
2022/08/09 01:27:22;;;;;;;32.78;6.60;;;;;;;;;;5080696;28;20476;-73
2022/08/09 01:29:52;;;;;;;18.20;6.07;;;;;;;;;;5073216;28;20399;-73
2022/08/09 01:32:20;;;;;;;133.98;10.70;;;;;;;;;;5086543;28;20040;-73
2022/08/09 01:34:48;;;;;;;19.02;4.20;;;;;;;;;;5095386;28;20034;-73
2022/08/09 01:37:15;;;;;;;18.77;4.28;;;;;;;;;;5076605;28;20056;-73
2022/08/09 01:39:43;;;;;;;44.03;6.10;;;;;;;;;;5076276;28;20455;-73
2022/08/09 01:42:09;;;;;;;24.48;5.88;;;;;;;;;;5076918;28;20080;-73
2022/08/09 01:44:36;;;;;;;41.78;5.43;;;;;;;;;;5095533;28;20048;-73
2022/08/09 01:47:03;;;;;;;22.75;5.82;;;;;;;;;;5094773;28;20485;-73
2022/08/09 01:49:31;;;;;;;10.93;5.03;;;;;;;;;;5094815;28;20044;-73
2022/08/09 01:52:04;;;;;;;9.35;6.07;;;;;;;;;;5094769;28;20532;-73
2022/08/09 01:54:32;;;;;;;10.10;6.65;;;;;;;;;;5094818;28;20044;-73
2022/08/09 01:57:00;;;;;;;8.65;6.03;;;;;;;;;;5094936;28;20374;-72
2022/08/09 01:59:27;;;;;;;11.70;7.00;;;;;;;;;;5077090;28;20040;-73
2022/08/09 02:01:54;;;;;;;29.33;6.00;;;;;;;;;;5089521;28;20040;-73
2022/08/09 02:04:21;;;;;;;22.33;9.52;;;;;;;;;;5083756;28;20119;-69
2022/08/09 02:07:07;;;;;;;61.35;4.55;;;;;;;;;;5082363;28;20098;-69
2022/08/09 02:09:34;;;;;;;186.02;7.95;;;;;;;;;;5095244;28;20481;-69
2022/08/09 02:12:03;;;;;;;37.38;4.88;;;;;;;;;;5088417;28;20099;-69
2022/08/09 02:14:29;;;;;;;90.78;5.88;;;;;;;;;;5095576;28;20090;-69
2022/08/09 02:16:56;;;;;;;92.25;6.47;;;;;;;;;;5082660;28;20041;-73
2022/08/09 02:19:22;;;;;;;51.78;5.82;;;;;;;;;;5068885;28;20031;-73
2022/08/09 02:21:49;;;;;;;43.05;5.32;;;;;;;;;;5077449;28;20040;-73
2022/08/09 02:24:18;;;;;;;67.13;5.80;;;;;;;;;;5090051;28;20046;-73
2022/08/09 02:26:44;;;;;;;83.95;6.22;;;;;;;;;;5091311;28;20110;-73
2022/08/09 02:29:15;;;;;;;15.20;9.52;;;;;;;;;;5091479;28;20106;-71
2022/08/09 02:31:43;;;;;;;17.42;10.20;;;;;;;;;;5064278;28;20063;-69
2022/08/09 02:34:14;;;;;;;58.67;5.65;;;;;;;;;;5089529;28;20044;-73
2022/08/09 02:36:41;;;;;;;24.15;3.20;;;;;;;;;;5100616;28;20066;-69
2022/08/09 02:39:10;;;;;;;133.63;6.00;;;;;;;;;;5096079;28;20050;-69
2022/08/09 02:41:40;;;;;;;49.95;5.10;;;;;;;;;;5094786;28;20067;-69
2022/08/09 02:44:09;;;;;;;98.35;6.55;;;;;;;;;;5070814;28;20048;-73
2022/08/09 02:46:35;;;;;;;67.38;3.95;;;;;;;;;;5082238;28;20115;-69
2022/08/09 02:49:07;;;;;;;38.63;5.35;;;;;;;;;;5084857;28;20050;-73
2022/08/09 02:51:35;;;;;;;18.73;6.72;;;;;;;;;;5062640;28;20047;-73
2022/08/09 02:54:02;;;;;;;35.40;4.88;;;;;;;;;;5081700;28;20041;-72
2022/08/09 02:56:31;;;;;;;19.92;5.60;;;;;;;;;;5084888;28;20055;-73
2022/08/09 02:58:58;;;;;;;59.63;6.80;;;;;;;;;;5088168;28;20040;-73
2022/08/09 03:01:25;;;;;;;105.43;6.32;;;;;;;;;;5089648;28;20405;-73
2022/08/09 03:03:52;;;;;;;54.05;5.43;;;;;;;;;;5089753;28;20094;-73
2022/08/09 03:06:21;;;;;;;35.70;5.53;;;;;;;;;;5065483;28;20032;-73
2022/08/09 03:08:47;;;;;;;13.05;4.43;;;;;;;;;;5093296;28;20044;-73
2022/08/09 03:11:18;;;;;;;17.73;5.30;;;;;;;;;;5075384;28;20396;-73
2022/08/09 03:13:45;;;;;;;55.60;5.80;;;;;;;;;;5094321;28;20036;-73
2022/08/09 03:16:11;;;;;;;13.30;7.43;;;;;;;;;;5106605;28;20135;-73
2022/08/09 03:18:38;;;;;;;270.45;8.13;;;;;;;;;;5074839;28;20077;-73
2022/08/09 03:21:05;;;;;;;209.82;7.07;;;;;;;;;;5093261;28;20438;-73
2022/08/09 03:23:31;;;;;;;126.53;5.63;;;;;;;;;;5075023;28;20401;-73
2022/08/09 03:25:58;;;;;;;9.93;4.22;;;;;;;;;;5074982;28;20044;-73
2022/08/09 03:28:26;;;;;;;222.40;9.05;;;;;;;;;;5094626;28;20129;-73
2022/08/09 03:30:54;;;;;;;80.50;6.85;;;;;;;;;;5075114;28;20058;-73
2022/08/09 03:33:21;;;;;;;42.90;6.10;;;;;;;;;;5092766;28;20044;-73
2022/08/09 03:35:50;;;;;;;61.58;5.82;;;;;;;;;;5093179;28;20036;-73
2022/08/09 03:38:19;;;;;;;52.13;5.60;;;;;;;;;;5074378;28;20090;-73
2022/08/09 03:40:45;;;;;;;38.08;4.78;;;;;;;;;;5093282;28;20044;-73
2022/08/09 03:43:11;;;;;;;48.50;6.60;;;;;;;;;;5092430;28;20046;-73
2022/08/09 03:45:37;;;;;;;26.83;5.97;;;;;;;;;;5074705;28;20046;-73
2022/08/09 03:48:03;;;;;;;53.63;5.90;;;;;;;;;;5074608;28;20035;-73
2022/08/09 03:50:30;;;;;;;31.23;5.70;;;;;;;;;;5092279;28;20127;-73
2022/08/09 03:52:58;;;;;;;57.33;6.00;;;;;;;;;;5092753;28;20085;-73
2022/08/09 03:55:25;;;;;;;20.98;8.70;;;;;;;;;;5092718;28;20043;-73
2022/08/09 03:57:51;;;;;;;43.83;5.65;;;;;;;;;;5092714;28;20079;-73
2022/08/09 04:00:17;;;;;;;49.22;6.10;;;;;;;;;;5055699;28;20127;-73
2022/08/09 04:02:44;;;;;;;50.17;5.57;;;;;;;;;;5072715;28;20046;-73
2022/08/09 04:05:10;;;;;;;47.75;5.57;;;;;;;;;;5078295;28;20040;-69
2022/08/09 04:07:37;;;;;;;34.92;4.70;;;;;;;;;;5069512;28;20047;-73
2022/08/09 04:10:03;;;;;;;38.20;5.88;;;;;;;;;;5082413;28;20037;-73
2022/08/09 04:12:49;;;;;;;28.00;4.90;;;;;;;;;;5050815;28;20046;-69
2022/08/09 04:15:16;;;;;;;27.27;7.13;;;;;;;;;;5064198;28;20496;-69
2022/08/09 04:17:42;;;;;;;22.33;7.55;;;;;;;;;;5089171;28;20032;-69
2022/08/09 04:20:09;;;;;;;8.40;5.10;;;;;;;;;;5081214;28;20045;-73
2022/08/09 04:22:35;;;;;;;14.43;4.72;;;;;;;;;;5072768;28;20043;-73
2022/08/09 04:25:01;;;;;;;9.50;4.93;;;;;;;;;;5062709;28;20044;-73
2022/08/09 04:27:28;;;;;;;33.55;6.75;;;;;;;;;;5057492;28;20054;-73
2022/08/09 04:29:54;;;;;;;18.77;7.10;;;;;;;;;;5089186;28;20055;-73
2022/08/09 04:32:20;;;;;;;18.10;6.40;;;;;;;;;;5077663;28;20046;-70
2022/08/09 04:34:46;;;;;;;14.18;5.75;;;;;;;;;;5093477;28;20027;-69
2022/08/09 04:37:12;;;;;;;17.50;4.60;;;;;;;;;;5083518;28;20093;-69
2022/08/09 04:39:38;;;;;;;27.83;6.30;;;;;;;;;;5087721;28;20043;-70
2022/08/09 04:42:05;;;;;;;14.70;5.80;;;;;;;;;;5100669;28;20098;-71
2022/08/09 04:44:31;;;;;;;12.18;3.70;;;;;;;;;;5089175;28;20408;-72
2022/08/09 04:46:57;;;;;;;22.02;4.78;;;;;;;;;;5077097;28;20040;-72
2022/08/09 04:49:24;;;;;;;5.35;3.70;;;;;;;;;;5095241;28;20382;-71
2022/08/09 04:51:50;;;;;;;12.50;4.97;;;;;;;;;;5083566;28;20035;-70
2022/08/09 04:54:17;;;;;;;19.67;5.15;;;;;;;;;;5095059;28;20083;-70
2022/08/09 04:56:44;;;;;;;8.35;4.05;;;;;;;;;;5067827;28;20514;-72
2022/08/09 04:59:10;;;;;;;8.05;3.85;;;;;;;;;;5083995;28;20035;-70
2022/08/09 05:01:36;;;;;;;5.97;4.30;;;;;;;;;;5098085;28;20036;-72
2022/08/09 05:04:02;;;;;;;6.25;3.90;;;;;;;;;;5068882;28;20043;-72
2022/08/09 05:06:28;;;;;;;6.43;3.55;;;;;;;;;;5070198;28;20063;-70
2022/08/09 05:08:55;;;;;;;4.35;3.40;;;;;;;;;;5071075;28;20040;-71
2022/08/09 05:11:22;;;;;;;4.53;3.30;;;;;;;;;;5056869;28;20042;-73
2022/08/09 05:13:48;;;;;;;5.55;3.05;;;;;;;;;;5073319;28;20043;-73
2022/08/09 05:16:14;;;;;;;9.93;3.30;;;;;;;;;;5056617;28;20036;-73
2022/08/09 05:18:40;;;;;;;4.93;2.60;;;;;;;;;;5073605;28;20056;-71
2022/08/09 05:21:06;;;;;;;6.03;3.17;;;;;;;;;;5057219;28;20507;-71
2022/08/09 05:23:32;;;;;;;4.68;2.85;;;;;;;;;;5085290;28;20118;-71
2022/08/09 05:25:58;;;;;;;4.05;2.80;;;;;;;;;;5072907;28;20048;-71
2022/08/09 05:28:24;;;;;;;4.35;2.80;;;;;;;;;;5073794;28;20056;-71
2022/08/09 05:30:51;;;;;;;3.83;3.00;;;;;;;;;;5072957;28;20064;-71
2022/08/09 05:33:17;;;;;;;4.60;2.53;;;;;;;;;;5073675;28;20041;-71
2022/08/09 05:35:43;;;;;;;3.55;2.60;;;;;;;;;;5091061;28;20032;-72
2022/08/09 05:38:10;;;;;;;6.18;2.60;;;;;;;;;;5073279;28;20067;-74
2022/08/09 05:40:36;;;;;;;4.80;2.90;;;;;;;;;;5073487;28;20044;-72
2022/08/09 05:43:02;;;;;;;4.57;2.75;;;;;;;;;;5091901;28;20425;-72
2022/08/09 05:45:28;;;;;;;3.45;2.22;;;;;;;;;;5072717;28;20036;-72
2022/08/09 05:47:55;;;;;;;3.15;2.08;;;;;;;;;;5072349;28;20123;-72
2022/08/09 05:50:24;;;;;;;4.35;2.53;;;;;;;;;;5057664;28;20051;-72
2022/08/09 05:52:50;;;;;;;4.43;2.55;;;;;;;;;;5076046;28;20048;-74
2022/08/09 05:55:16;;;;;;;3.38;2.65;;;;;;;;;;5075082;28;20115;-72
2022/08/09 05:57:43;;;;;;;3.60;2.80;;;;;;;;;;5074778;28;20129;-72
2022/08/09 06:00:09;;;;;;;4.93;2.80;;;;;;;;;;5075138;28;20040;-75
2022/08/09 06:02:35;;;;;;;4.10;2.70;;;;;;;;;;5075077;28;20036;-75
2022/08/09 06:05:01;;;;;;;5.15;2.80;;;;;;;;;;5070749;28;20051;-75
2022/08/09 06:07:28;;;;;;;4.95;2.97;;;;;;;;;;5061010;28;20062;-74
2022/08/09 06:09:54;;;;;;;3.10;2.58;;;;;;;;;;5058972;28;20045;-75
2022/08/09 06:12:20;;;;;;;5.00;2.90;;;;;;;;;;5051308;28;20039;-76
2022/08/09 06:14:47;;;;;;;4.68;2.80;;;;;;;;;;5075789;28;20044;-76
2022/08/09 06:17:13;;;;;;;3.97;3.08;;;;;;;;;;5079865;28;20442;-76
2022/08/09 06:19:39;;;;;;;3.53;2.70;;;;;;;;;;5061038;28;20040;-77
2022/08/09 06:22:06;;;;;;;4.25;2.63;;;;;;;;;;5073577;28;20528;-76
2022/08/09 06:24:32;;;;;;;4.85;2.80;;;;;;;;;;5077609;28;20045;-76
2022/08/09 06:26:58;;;;;;;4.90;3.08;;;;;;;;;;5075901;28;20048;-75
2022/08/09 06:29:24;;;;;;;4.68;2.80;;;;;;;;;;5077843;28;20043;-75
2022/08/09 06:31:50;;;;;;;6.32;2.95;;;;;;;;;;5094521;28;20040;-71
2022/08/09 06:34:16;;;;;;;5.47;3.40;;;;;;;;;;5069462;28;20049;-76
2022/08/09 06:36:42;;;;;;;4.32;2.90;;;;;;;;;;5065061;28;20442;-76
2022/08/09 06:39:10;;;;;;;6.57;2.95;;;;;;;;;;5076901;28;20098;-76
2022/08/09 06:41:36;;;;;;;5.07;2.85;;;;;;;;;;5094820;28;20043;-73
2022/08/09 06:44:03;;;;;;;3.88;2.85;;;;;;;;;;5091217;28;20036;-75
2022/08/09 06:46:30;;;;;;;4.13;2.63;;;;;;;;;;5072861;28;20047;-74
2022/08/09 06:48:56;;;;;;;5.05;2.55;;;;;;;;;;5085647;28;20055;-71
2022/08/09 06:51:22;;;;;;;6.40;2.53;;;;;;;;;;5111026;28;20041;-71
2022/08/09 06:53:48;;;;;;;4.32;2.20;;;;;;;;;;5094682;28;20027;-76
2022/08/09 06:56:14;;;;;;;4.85;2.70;;;;;;;;;;5065887;28;20040;-76
2022/08/09 06:58:40;;;;;;;4.40;2.50;;;;;;;;;;5096295;28;20172;-73
2022/08/09 07:01:07;;;;;;;3.70;2.40;;;;;;;;;;5080513;28;20043;-77
2022/08/09 07:03:33;;;;;;;3.55;2.50;;;;;;;;;;5073026;28;20408;-78
2022/08/09 07:06:01;;;;;;;4.10;2.40;;;;;;;;;;5056315;28;20040;-78
2022/08/09 07:08:28;;;;;;;3.63;2.70;;;;;;;;;;5059609;28;20051;-75
2022/08/09 07:10:54;;;;;;;3.92;2.35;;;;;;;;;;5058156;28;20040;-71
2022/08/09 07:13:20;;;;;;;4.53;2.47;;;;;;;;;;5066836;28;20044;-77
2022/08/09 07:15:46;;;;;;;6.05;2.60;;;;;;;;;;5062787;28;20052;-80
2022/08/09 07:18:12;;;;;;;3.53;2.58;;;;;;;;;;5041233;28;20075;-73
2022/08/09 07:20:38;;;;;;;6.20;2.75;;;;;;;;;;5058356;28;20064;-81
2022/08/09 07:23:04;;;;;;;4.85;2.80;;;;;;;;;;5063469;28;20046;-79
2022/08/09 07:25:31;;;;;;;5.30;2.78;;;;;;;;;;5073481;28;20055;-72
2022/08/09 07:27:57;;;;;;;4.50;2.45;;;;;;;;;;5091160;28;20040;-70
2022/08/09 07:30:23;;;;;;;7.63;2.42;;;;;;;;;;5056993;28;20524;-81
2022/08/09 07:32:49;;;;;;;4.30;2.70;;;;;;;;;;5058926;28;20044;-75
2022/08/09 07:35:15;;;;;;;4.47;2.60;;;;;;;;;;5040669;28;20047;-78
2022/08/09 07:37:42;;;;;;;6.80;2.10;;;;;;;;;;5054487;28;20062;-75
2022/08/09 07:40:08;;;;;;;4.05;2.10;;;;;;;;;;5056939;28;20127;-75
2022/08/09 07:42:46;;;;;;;4.03;2.58;;;;;;;;;;5068258;28;20102;-75
2022/08/09 07:45:12;;;;;;;4.30;2.50;;;;;;;;;;5088203;28;20073;-75
2022/08/09 07:47:38;;;;;;;3.33;1.90;;;;;;;;;;5081706;28;20042;-74
2022/08/09 07:50:04;;;;;;;4.60;2.08;;;;;;;;;;5077229;28;20038;-75
2022/08/09 07:52:31;;;;;;;3.28;1.80;;;;;;;;;;5098883;28;20075;-72
2022/08/09 07:54:57;;;;;;;3.92;1.95;;;;;;;;;;5085111;28;20051;-73
2022/08/09 07:57:23;;;;;;;5.63;1.98;;;;;;;;;;5095474;28;20043;-76
2022/08/09 07:59:49;;;;;;;4.25;2.08;;;;;;;;;;5089823;28;20032;-75
2022/08/09 08:02:15;;;;;;;2.83;1.52;;;;;;;;;;5079157;28;20542;-75
2022/08/09 08:04:41;;;;;;;3.35;1.70;;;;;;;;;;5081198;28;20403;-74
2022/08/09 08:07:07;;;;;;;3.05;1.13;;;;;;;;;;5067191;28;20062;-74
2022/08/09 08:09:33;;;;;;;3.15;1.40;;;;;;;;;;5065278;28;20127;-76
2022/08/09 08:11:59;;;;;;;3.35;1.20;;;;;;;;;;5065277;28;20537;-77
2022/08/09 08:14:25;;;;;;;3.70;1.40;;;;;;;;;;5082398;28;20477;-78
2022/08/09 08:16:51;;;;;;;3.50;1.20;;;;;;;;;;5075201;28;20029;-73
2022/08/09 08:19:17;;;;;;;4.97;1.50;;;;;;;;;;5069553;28;20052;-73
2022/08/09 08:21:43;;;;;;;4.20;1.30;;;;;;;;;;5065604;28;20051;-73
2022/08/09 08:24:09;;;;;;;2.88;1.30;;;;;;;;;;5090353;28;20453;-73
2022/08/09 08:26:35;;;;;;;3.88;1.10;;;;;;;;;;5057376;28;20397;-75
2022/08/09 08:29:01;;;;;;;3.10;1.30;;;;;;;;;;5061708;28;20048;-77
2022/08/09 08:31:27;;;;;;;2.00;0.82;;;;;;;;;;5074407;28;20060;-74
2022/08/09 08:33:54;;;;;;;2.60;0.70;;;;;;;;;;5057717;28;20066;-74
2022/08/09 08:36:20;;;;;;;2.50;0.68;;;;;;;;;;5078628;28;20043;-77
2022/08/09 08:38:46;;;;;;;2.45;0.75;;;;;;;;;;5069127;28;20115;-72
2022/08/09 08:41:12;;;;;;;2.35;0.73;;;;;;;;;;5083955;28;20373;-74
2022/08/09 08:43:38;;;;;;;1.98;0.65;;;;;;;;;;5067406;28;20045;-79
2022/08/09 08:46:08;;;;;;;1.52;0.90;;;;;;;;;;5086523;28;20404;-78
2022/08/09 08:48:34;;;;;;;1.33;0.60;;;;;;;;;;5075698;28;20104;-77
2022/08/09 08:51:02;;;;;;;1.83;0.60;;;;;;;;;;5067994;28;20051;-75
2022/08/09 08:53:28;;;;;;;2.42;0.70;;;;;;;;;;5084414;28;20040;-75
2022/08/09 08:55:55;;;;;;;2.75;0.70;;;;;;;;;;5073023;28;20036;-70
2022/08/09 08:58:21;;;;;;;2.40;0.68;;;;;;;;;;5060538;28;20051;-76
2022/08/09 09:00:47;;;;;;;1.83;0.70;;;;;;;;;;5061018;28;20495;-72
2022/08/09 09:03:15;;;;;;;1.85;0.70;;;;;;;;;;5091296;28;20545;-76
2022/08/09 09:05:41;;;;;;;2.65;0.68;;;;;;;;;;5076704;28;20042;-75
2022/08/09 09:08:08;;;;;;;2.08;0.60;;;;;;;;;;5081237;28;20509;-72
2022/08/09 09:10:34;;;;;;;2.17;0.60;;;;;;;;;;5069892;28;20123;-78
2022/08/09 09:13:01;;;;;;;4.28;0.80;;;;;;;;;;5102839;28;20123;-76
2022/08/09 09:15:28;;;;;;;1.90;0.60;;;;;;;;;;5085702;28;20032;-79
2022/08/09 09:17:54;;;;;;;1.42;0.73;;;;;;;;;;5073523;28;20436;-76
2022/08/09 09:20:20;;;;;;;1.58;0.60;;;;;;;;;;5073443;28;20048;-78
2022/08/09 09:22:52;;;;;;;3.30;0.82;;;;;;;;;;5073763;28;20039;-68
2022/08/09 09:25:32;;;;;;;2.38;0.55;;;;;;;;;;5074244;28;20042;-74
2022/08/09 09:27:58;;;;;;;1.17;0.68;;;;;;;;;;5079383;28;20409;-73
2022/08/09 09:30:24;;;;;;;1.85;0.70;;;;;;;;;;5076760;28;20052;-71
2022/08/09 09:33:20;;;;;;;1.63;0.60;;;;;;;;;;5040766;28;20401;-77
2022/08/09 09:35:59;;;;;;;2.38;0.70;;;;;;;;;;5080230;28;20043;-78
2022/08/09 09:38:45;;;;;;;1.80;0.60;;;;;;;;;;5066242;28;20043;-77
2022/08/09 09:41:26;;;;;;;1.50;0.60;;;;;;;;;;5094522;28;20084;-72
2022/08/09 09:43:53;;;;;;;1.65;0.70;;;;;;;;;;5069599;28;20036;-76
2022/08/09 09:46:19;;;;;;;3.10;0.77;;;;;;;;;;5077891;28;20058;-77
2022/08/09 09:49:03;;;;;;;1.33;0.55;;;;;;;;;;5061636;28;20032;-77
2022/08/09 09:51:30;;;;;;;3.40;0.53;;;;;;;;;;5063334;28;20040;-76
2022/08/09 09:54:22;;;;;;;1.38;0.60;;;;;;;;;;5086692;28;20043;-72
2022/08/09 09:56:49;;;;;;;1.00;0.55;;;;;;;;;;5059405;28;20077;-71
2022/08/09 09:59:21;;;;;;;2.95;0.60;;;;;;;;;;5065658;28;20047;-71
2022/08/09 10:01:58;;;;;;;2.67;0.82;;;;;;;;;;5070283;28;20072;-71
2022/08/09 10:04:24;;;;;;;1.90;0.70;;;;;;;;;;5068117;28;20040;-71
2022/08/09 10:06:50;;;;;;;1.33;0.50;;;;;;;;;;5067474;28;20047;-72
2022/08/09 10:09:16;;;;;;;1.90;0.63;;;;;;;;;;5075407;28;20150;-73
2022/08/09 10:11:42;;;;;;;2.35;0.60;;;;;;;;;;5060663;28;20484;-78
2022/08/09 10:14:24;;;;;;;2.03;0.70;;;;;;;;;;5068723;28;20039;-72
2022/08/09 10:16:50;;;;;;;1.90;0.70;;;;;;;;;;5065006;28;20161;-74
2022/08/09 10:19:17;;;;;;;2.45;0.60;;;;;;;;;;5064183;28;20388;-76
2022/08/09 10:21:47;;;;;;;1.55;0.60;;;;;;;;;;5075383;28;20070;-74
2022/08/09 10:24:14;;;;;;;2.15;0.77;;;;;;;;;;5073268;28;20039;-72
2022/08/09 10:26:40;;;;;;;3.35;1.00;;;;;;;;;;5069710;28;20222;-71
2022/08/09 10:29:07;;;;;;;1.80;0.65;;;;;;;;;;5078270;28;20063;-73
2022/08/09 10:31:33;;;;;;;2.42;0.68;;;;;;;;;;5077952;28;20075;-69
2022/08/09 10:33:59;;;;;;;2.20;0.68;;;;;;;;;;5093595;28;20040;-67
2022/08/09 10:36:25;;;;;;;2.67;0.60;;;;;;;;;;5097751;28;20032;-71
2022/08/09 10:38:51;;;;;;;1.65;0.60;;;;;;;;;;5060710;28;20131;-71
2022/08/09 10:41:18;;;;;;;1.50;0.68;;;;;;;;;;5079730;28;20084;-77
2022/08/09 10:43:45;;;;;;;1.60;0.70;;;;;;;;;;5077898;28;20044;-70
2022/08/09 10:46:28;;;;;;;1.38;0.93;;;;;;;;;;5078356;28;20116;-72
2022/08/09 10:49:06;;;;;;;1.13;0.60;;;;;;;;;;5089095;28;20168;-74
2022/08/09 10:51:48;;;;;;;1.70;0.65;;;;;;;;;;5086400;28;20035;-78
2022/08/09 10:54:14;;;;;;;1.55;0.82;;;;;;;;;;5104057;28;20043;-70
2022/08/09 10:56:42;;;;;;;2.10;0.55;;;;;;;;;;5093382;28;20041;-67
2022/08/09 10:59:27;;;;;;;1.10;0.50;;;;;;;;;;5096302;28;20040;-71
2022/08/09 11:01:53;;;;;;;3.50;0.50;;;;;;;;;;5084870;28;20047;-70
2022/08/09 11:04:21;;;;;;;2.58;0.88;;;;;;;;;;5062261;28;20290;-76
2022/08/09 11:06:48;;;;;;;4.22;0.80;;;;;;;;;;5075175;28;20450;-71
2022/08/09 11:09:18;;;;;;;3.28;0.73;;;;;;;;;;5061258;28;20047;-70
2022/08/09 11:11:53;;;;;;;2.83;0.60;;;;;;;;;;5059021;28;20401;-70
2022/08/09 11:17:37;;;;;;;3.47;0.70;;;;;;;;;;4995349;28;20142;-74
2022/08/09 11:20:09;;;;;;;2.63;0.60;;;;;;;;;;5077871;28;20044;-75
2022/08/09 11:22:43;;;;;;;1.80;0.80;;;;;;;;;;5093381;28;20032;-75
2022/08/09 11:25:15;;;;;;;1.30;0.60;;;;;;;;;;5074761;28;20094;-71
2022/08/09 11:27:56;;;;;;;2.35;0.60;;;;;;;;;;5076981;28;20042;-71
2022/08/09 11:30:22;;;;;;;1.58;0.50;;;;;;;;;;5074400;28;20067;-71
2022/08/09 11:32:49;;;;;;;1.27;0.68;;;;;;;;;;5075305;28;20389;-72
2022/08/09 11:35:18;;;;;;;1.33;0.50;;;;;;;;;;5092473;28;20036;-72
2022/08/09 11:37:46;;;;;;;3.45;0.60;;;;;;;;;;5056582;28;20099;-71
2022/08/09 11:40:13;;;;;;;3.45;0.60;;;;;;;;;;5079080;28;20126;-70
2022/08/09 11:42:47;;;;;;;1.92;0.47;;;;;;;;;;5087233;28;20071;-74
2022/08/09 11:45:29;;;;;;;2.08;0.50;;;;;;;;;;5068336;28;20037;-75
2022/08/09 11:47:56;;;;;;;1.42;0.60;;;;;;;;;;5063455;28;20090;-74
2022/08/09 11:50:24;;;;;;;5.80;0.70;;;;;;;;;;5078118;28;20032;-74
2022/08/09 11:53:00;;;;;;;1.77;0.60;;;;;;;;;;5071045;28;20458;-78
2022/08/09 11:55:30;;;;;;;1.30;0.60;;;;;;;;;;5063307;28;20043;-76
2022/08/09 11:57:56;;;;;;;2.72;0.60;;;;;;;;;;5087489;28;20502;-73
2022/08/09 12:00:23;;;;;;;2.88;0.55;;;;;;;;;;5088815;28;20112;-75
2022/08/09 12:02:50;;;;;;;1.80;0.50;;;;;;;;;;5062525;28;20062;-80
2022/08/09 12:05:16;;;;;;;2.38;0.60;;;;;;;;;;5069302;28;20548;-79
2022/08/09 12:07:42;;;;;;;1.27;0.60;;;;;;;;;;5057714;28;20040;-74
2022/08/09 12:10:10;;;;;;;1.88;0.70;;;;;;;;;;5053327;28;20101;-74
2022/08/09 12:12:46;;;;;;;1.98;0.73;;;;;;;;;;5074092;28;20541;-74
2022/08/09 12:15:23;;;;;;;2.25;0.60;;;;;;;;;;5073497;28;20040;-75
2022/08/09 12:17:49;;;;;;;1.73;0.60;;;;;;;;;;5044843;28;20044;-79
2022/08/09 12:20:17;;;;;;;2.03;0.60;;;;;;;;;;5073354;28;20087;-76
2022/08/09 12:22:43;;;;;;;1.50;0.50;;;;;;;;;;5073346;28;20119;-77
2022/08/09 12:25:13;;;;;;;1.73;0.80;;;;;;;;;;5072951;28;20040;-80
2022/08/09 12:27:39;;;;;;;2.35;0.70;;;;;;;;;;5076738;28;20550;-79
2022/08/09 12:30:06;;;;;;;2.58;0.80;;;;;;;;;;5073716;28;20055;-74
2022/08/09 12:32:32;;;;;;;1.20;0.70;;;;;;;;;;5040427;28;20054;-74
2022/08/09 12:34:59;;;;;;;2.90;0.70;;;;;;;;;;5074511;28;20039;-75
2022/08/09 12:37:34;;;;;;;1.80;0.70;;;;;;;;;;5073536;28;20052;-79
2022/08/09 12:40:00;;;;;;;;;;;;;;;;;;5092208;28;20121;-76
2022/08/09 12:42:27;;;;;;;3.55;0.70;;;;;;;;;;5073705;28;19916;-75
2022/08/09 12:44:53;;;;;;;2.75;0.80;;;;;;;;;;5057209;28;20035;-74
2022/08/09 12:47:20;;;;;;;1.65;0.82;;;;;;;;;;5073523;28;20036;-76
2022/08/09 12:52:43;;;;;;;2.67;0.80;;;;;;;;;;5073343;28;20056;-79
2022/08/09 12:55:10;;;;;;;3.30;0.73;;;;;;;;;;5057310;28;20043;-79
2022/08/09 12:57:41;;;;;;;3.08;0.82;;;;;;;;;;5073312;28;20044;-79
2022/08/09 13:00:14;;;;;;;2.50;0.80;;;;;;;;;;5059272;28;20040;-81
2022/08/09 13:02:54;;;;;;;3.38;1.00;;;;;;;;;;5068357;28;20047;-73
2022/08/09 13:05:21;;;;;;;1.50;0.60;;;;;;;;;;5073196;28;20076;-69
2022/08/09 13:08:06;;;;;;;1.10;0.60;;;;;;;;;;5077296;28;20089;-81
2022/08/09 13:10:43;;;;;;;3.03;0.90;;;;;;;;;;5077415;28;20404;-70
2022/08/09 13:13:09;;;;;;;1.63;0.70;;;;;;;;;;5073789;28;20374;-68
2022/08/09 13:15:35;;;;;;;2.17;0.98;;;;;;;;;;5078609;28;20377;-77
2022/08/09 13:18:02;;;;;;;2.97;0.82;;;;;;;;;;5058141;28;20048;-79
2022/08/09 13:20:33;;;;;;;1.48;0.60;;;;;;;;;;5070787;28;20097;-73
2022/08/09 13:22:59;;;;;;;4.80;0.68;;;;;;;;;;5078884;28;20067;-75
2022/08/09 13:25:25;;;;;;;1.17;0.70;;;;;;;;;;5063613;28;20055;-72
2022/08/09 13:27:52;;;;;;;1.75;0.63;;;;;;;;;;5082966;28;20039;-81
2022/08/09 13:30:19;;;;;;;1.98;0.70;;;;;;;;;;5074257;28;20107;-68
2022/08/09 13:32:52;;;;;;;4.97;0.80;;;;;;;;;;5078463;28;20040;-71
2022/08/09 13:35:22;;;;;;;3.75;0.80;;;;;;;;;;5074144;28;20036;-84
2022/08/09 13:37:49;;;;;;;1.52;0.88;;;;;;;;;;5069949;28;20399;-72
2022/08/09 13:40:15;;;;;;;2.45;0.70;;;;;;;;;;5066704;28;20059;-72
2022/08/09 13:42:42;;;;;;;1.70;0.63;;;;;;;;;;5048647;28;20051;-75
2022/08/09 13:45:09;;;;;;;1.05;0.50;;;;;;;;;;5074753;28;20047;-74
2022/08/09 13:47:35;;;;;;;1.50;0.70;;;;;;;;;;5076455;28;20044;-75
2022/08/09 13:50:03;;;;;;;7.50;0.95;;;;;;;;;;5060961;28;20437;-71
2022/08/09 13:52:30;;;;;;;2.25;0.70;;;;;;;;;;5066611;28;20036;-74
2022/08/09 13:54:56;;;;;;;1.88;0.70;;;;;;;;;;5079064;28;20077;-74
2022/08/09 13:57:23;;;;;;;1.77;0.60;;;;;;;;;;5066141;28;20403;-74
2022/08/09 13:59:49;;;;;;;1.17;0.52;;;;;;;;;;5062475;28;20059;-73
2022/08/09 14:02:16;;;;;;;1.40;0.60;;;;;;;;;;5077611;28;20047;-72
2022/08/09 14:04:42;;;;;;;2.17;0.50;;;;;;;;;;5076582;28;20097;-73
2022/08/09 14:07:08;;;;;;;1.55;0.55;;;;;;;;;;5075760;28;20075;-72
2022/08/09 14:09:34;;;;;;;1.52;0.60;;;;;;;;;;5050275;28;20055;-72
2022/08/09 14:12:01;;;;;;;1.08;0.50;;;;;;;;;;5053572;28;20101;-85
2022/08/09 14:14:27;;;;;;;1.30;0.60;;;;;;;;;;5052954;28;20072;-86
2022/08/09 14:16:53;;;;;;;1.08;0.60;;;;;;;;;;5055671;28;20036;-72
2022/08/09 14:19:20;;;;;;;1.20;0.40;;;;;;;;;;5062838;28;20044;-73
2022/08/09 14:21:46;;;;;;;3.17;0.60;;;;;;;;;;5057918;28;20027;-84
2022/08/09 14:24:16;;;;;;;1.45;0.60;;;;;;;;;;5092660;28;20044;-85
2022/08/09 14:26:42;;;;;;;3.28;0.60;;;;;;;;;;5096127;28;20040;-86
2022/08/09 14:29:10;;;;;;;1.60;0.50;;;;;;;;;;5093593;28;20043;-74
2022/08/09 14:31:36;;;;;;;1.00;0.45;;;;;;;;;;5086287;28;20048;-85
2022/08/09 14:34:03;;;;;;;1.27;0.60;;;;;;;;;;5088467;28;20496;-73
2022/08/09 14:36:29;;;;;;;1.60;0.57;;;;;;;;;;5090217;28;20487;-71
2022/08/09 14:38:55;;;;;;;1.25;0.50;;;;;;;;;;5090640;28;20390;-73
2022/08/09 14:41:21;;;;;;;1.20;0.60;;;;;;;;;;5092761;28;20130;-83
2022/08/09 14:43:47;;;;;;;1.55;0.60;;;;;;;;;;5067954;28;20036;-72
2022/08/09 14:46:13;;;;;;;1.33;0.60;;;;;;;;;;5090101;28;20041;-86
2022/08/09 14:48:39;;;;;;;1.50;0.60;;;;;;;;;;5087203;28;20069;-71